»·PEaware :: N6977U KLAX-KSAN

N6977U :: KLAX-KSAN

FLIGHT INFORMATION

Flight Status: Arrived
Operator: Privately registered:
United States
More flights under this callsign
Pilot: Jeremy H. (10741)
Aircraft: CESSNA 310
(C310)
More flights by this aircraft type
Origin: KLAX Los Angeles Intl
United States
Destination: KSAN San Diego Intl-Lindbergh
United States
More flights between these airports :: More routes between these airports
Route:
File this flight plan on PilotEdge
Remarks:
Altitude:
(Current/Filed)
5,500ft
Speed:
(Current/Filed)
0kts
Departed: 21-Nov-23 07:20 PM
Arrived: 21-Nov-23 07:59 PM
Distance/Time
Traveled:
95nm/0:39
Distance/Time
To Go:
Arrived

Flight Plot

Page will automatically refresh every two minutes.


Map Options




Map Legend


Flown Route
Filed Route
Departure Airport
Arrival Airport
Navaid (VOR, NDB)
Fix

Horizontal Profiles

Position Reports

Time Latitude Longitude Heading Altitude Ground
Speed
21-Nov-23 18:42 33.932576 -118.398167 176 120ft 0kts
21-Nov-23 18:44 33.932576 -118.398167 176 120ft 0kts
21-Nov-23 18:44 33.932576 -118.398167 176 120ft 0kts
21-Nov-23 18:45 33.932576 -118.398167 176 120ft 0kts
21-Nov-23 18:46 33.932576 -118.398167 176 120ft 0kts
21-Nov-23 18:47 33.932576 -118.398167 176 120ft 0kts
21-Nov-23 18:48 33.932576 -118.398167 176 120ft 0kts
21-Nov-23 18:49 33.932576 -118.398167 176 120ft 0kts
21-Nov-23 18:50 33.932576 -118.398167 176 120ft 0kts
21-Nov-23 18:51 33.932576 -118.398167 176 120ft 0kts
21-Nov-23 18:52 33.932576 -118.398167 176 120ft 0kts
21-Nov-23 18:53 33.932576 -118.398167 176 120ft 0kts
21-Nov-23 18:54 33.932576 -118.398167 176 120ft 0kts
21-Nov-23 18:55 33.932576 -118.398167 176 120ft 0kts
21-Nov-23 18:56 33.932576 -118.398167 176 120ft 0kts
21-Nov-23 18:57 33.932576 -118.398167 176 120ft 0kts
21-Nov-23 18:58 33.932576 -118.398167 176 120ft 0kts
21-Nov-23 18:59 33.932576 -118.398167 176 120ft 0kts
21-Nov-23 19:00 33.932576 -118.398167 176 120ft 0kts
21-Nov-23 19:01 33.932576 -118.398167 176 120ft 0kts
21-Nov-23 19:02 33.932576 -118.398167 176 120ft 0kts
21-Nov-23 19:03 33.932576 -118.398167 176 120ft 0kts
21-Nov-23 19:04 33.932576 -118.398167 176 120ft 0kts
21-Nov-23 19:05 33.932576 -118.398167 176 120ft 0kts
21-Nov-23 19:06 33.932576 -118.398167 176 120ft 0kts
21-Nov-23 19:07 33.932576 -118.398167 176 120ft 0kts
21-Nov-23 19:08 33.932576 -118.398167 176 120ft 0kts
21-Nov-23 19:09 33.932576 -118.398167 176 120ft 0kts
21-Nov-23 19:10 33.932576 -118.398167 176 120ft 0kts
21-Nov-23 19:11 33.932571 -118.398166 171 120ft 0kts
21-Nov-23 19:12 33.932684 -118.397764 55 119ft 0kts
21-Nov-23 19:13 33.933920 -118.398086 346 118ft 14kts
21-Nov-23 19:14 33.935044 -118.393282 83 120ft 19kts
21-Nov-23 19:15 33.935692 -118.387099 84 120ft 18kts
21-Nov-23 19:16 33.936449 -118.382817 13 120ft 0kts
21-Nov-23 19:17 33.936449 -118.382817 13 120ft 0kts
21-Nov-23 19:18 33.936449 -118.382817 13 120ft 0kts
21-Nov-23 19:19 33.937109 -118.385160 262 120ft 60kts
21-Nov-23 19:20 33.933049 -118.418722 256 1846ft 101kts
21-Nov-23 19:21 33.902880 -118.406663 165 2528ft 161kts
21-Nov-23 19:22 33.856035 -118.391707 162 2505ft 180kts
21-Nov-23 19:23 33.824788 -118.347401 151 2783ft 170kts
21-Nov-23 19:24 33.785432 -118.320259 152 3680ft 158kts
21-Nov-23 19:25 33.747715 -118.294192 152 4655ft 154kts
21-Nov-23 19:26 33.709952 -118.268048 151 5501ft 168kts
21-Nov-23 19:27 33.700576 -118.209805 92 5510ft 189kts
21-Nov-23 19:28 33.694919 -118.148251 118 5510ft 186kts
21-Nov-23 19:29 33.670733 -118.093280 120 5507ft 186kts
21-Nov-23 19:30 33.639600 -118.043888 135 5508ft 185kts
21-Nov-23 19:31 33.603972 -117.999077 135 5505ft 186kts
21-Nov-23 19:32 33.570930 -117.951575 127 5494ft 186kts
21-Nov-23 19:33 33.540662 -117.901173 127 5492ft 186kts
21-Nov-23 19:34 33.510410 -117.850822 127 5493ft 185kts
21-Nov-23 19:35 33.479181 -117.801752 137 5497ft 185kts
21-Nov-23 19:36 33.441640 -117.759140 138 5264ft 182kts
21-Nov-23 19:37 33.407675 -117.716789 135 4733ft 172kts
21-Nov-23 19:38 33.374986 -117.675451 135 4223ft 170kts
21-Nov-23 19:39 33.342470 -117.634296 135 3718ft 170kts
21-Nov-23 19:40 33.310223 -117.593378 135 3506ft 169kts
21-Nov-23 19:41 33.276716 -117.553703 144 3510ft 169kts
21-Nov-23 19:42 33.239377 -117.519113 144 3241ft 166kts
21-Nov-23 19:43 33.203480 -117.485762 144 2726ft 161kts
21-Nov-23 19:44 33.166123 -117.456929 152 2217ft 159kts
21-Nov-23 19:45 33.124816 -117.438657 166 1727ft 163kts
21-Nov-23 19:46 33.080904 -117.423589 166 1498ft 158kts
21-Nov-23 19:47 33.037538 -117.409669 170 1502ft 164kts
21-Nov-23 19:48 32.992368 -117.400854 173 1505ft 165kts
21-Nov-23 19:49 32.946657 -117.393614 176 1502ft 165kts
21-Nov-23 19:50 32.906991 -117.370167 143 1506ft 166kts
21-Nov-23 19:51 32.871605 -117.333755 140 1504ft 168kts
21-Nov-23 19:52 32.837963 -117.298622 141 1493ft 154kts
21-Nov-23 19:53 32.806693 -117.267121 141 1494ft 139kts
21-Nov-23 19:54 32.776881 -117.236839 134 1334ft 147kts
21-Nov-23 19:55 32.758670 -117.194702 102 1007ft 144kts
21-Nov-23 19:56 32.750694 -117.148980 109 1007ft 135kts
21-Nov-23 19:57 32.726620 -117.158511 275 606ft 109kts
21-Nov-23 19:58 32.732808 -117.186634 285 19ft 22kts
21-Nov-23 19:59 32.733887 -117.186260 106 17ft 8kts
21-Nov-23 20:00 32.732672 -117.181235 105 18ft 17kts
21-Nov-23 20:01 32.734254 -117.179525 278 21ft 0kts
21-Nov-23 20:02 32.734254 -117.179525 278 21ft 0kts

Navigation Log

Ident Type
Flight plan parsing failed, navigation log unavailable